»·PEaware :: SWA5522 KSAN-KABQ

SWA5522 :: KSAN-KABQ

FLIGHT INFORMATION

Flight Status: Arrived
Operator:
Southwest Airlines
More flights by this operator :: More flights under this callsign
Pilot: Ruben R. (12247)
Aircraft: BOEING 737-200
(B732)
More flights by this aircraft type
Origin: KSAN San Diego Intl-Lindbergh
United States
Destination: KABQ Albuquerque Intl Sunport
United States
More flights between these airports :: More routes between these airports
Route: ZZOOO1 IPL J18 GBN PXR J18 SJN CABNO
File this flight plan on PilotEdge
Remarks: TWITCH.TV / THEMACH3LOUNGE
Altitude:
(Current/Filed)
32,000ft
Speed:
(Current/Filed)
450kts
Departed: 30-Dec-17 07:28 PM
Arrived: 30-Dec-17 08:56 PM
Distance/Time
Traveled:
544nm/1:28
Distance/Time
To Go:
Arrived

Flight Plot

Page will automatically refresh every two minutes.

Flight plan parsing failed; only flown route is shown


Map Options




Map Legend


Flown Route
Filed Route
Departure Airport
Arrival Airport
Navaid (VOR, NDB)
Fix

Horizontal Profiles

Position Reports

Time Latitude Longitude Heading Altitude Ground
Speed
30-Dec-17 19:02 32.732864 -117.195494 278 21ft 0kts
30-Dec-17 19:03 32.732864 -117.195494 278 21ft 0kts
30-Dec-17 19:04 32.732864 -117.195494 278 21ft 0kts
30-Dec-17 19:05 32.732864 -117.195494 278 21ft 0kts
30-Dec-17 19:06 32.732864 -117.195494 278 21ft 0kts
30-Dec-17 19:07 32.732864 -117.195494 278 21ft 0kts
30-Dec-17 19:08 32.732864 -117.195494 278 21ft 0kts
30-Dec-17 19:09 32.732864 -117.195494 278 21ft 0kts
30-Dec-17 19:10 32.732864 -117.195494 278 21ft 0kts
30-Dec-17 19:11 32.732864 -117.195494 278 21ft 0kts
30-Dec-17 19:12 32.732864 -117.195494 278 21ft 0kts
30-Dec-17 19:13 32.732864 -117.195494 278 21ft 0kts
30-Dec-17 19:14 32.732864 -117.195494 278 21ft 0kts
30-Dec-17 19:15 32.732864 -117.195494 278 21ft 0kts
30-Dec-17 19:16 32.732864 -117.195494 278 21ft 0kts
30-Dec-17 19:17 32.732865 -117.195499 278 21ft 0kts
30-Dec-17 19:18 32.732789 -117.195155 303 21ft 2kts
30-Dec-17 19:19 32.732347 -117.194967 18 21ft 1kts
30-Dec-17 19:20 32.732330 -117.194974 18 21ft 0kts
30-Dec-17 19:21 32.732330 -117.194974 18 21ft 0kts
30-Dec-17 19:22 32.732330 -117.194974 18 21ft 0kts
30-Dec-17 19:23 32.732330 -117.194974 18 21ft 0kts
30-Dec-17 19:24 32.732330 -117.194974 18 21ft 0kts
30-Dec-17 19:25 32.732330 -117.194974 18 21ft 0kts
30-Dec-17 19:26 32.732330 -117.194974 18 21ft 0kts
30-Dec-17 19:27 32.733194 -117.194507 45 21ft 8kts
30-Dec-17 19:28 32.733160 -117.192327 105 22ft 8kts
30-Dec-17 19:29 32.732593 -117.189950 106 22ft 9kts
30-Dec-17 19:30 32.731823 -117.186806 106 22ft 18kts
30-Dec-17 19:31 32.730405 -117.180887 106 21ft 24kts
30-Dec-17 19:32 32.729509 -117.176799 74 23ft 0kts
30-Dec-17 19:33 32.729513 -117.176784 74 23ft 2kts
30-Dec-17 19:34 32.732323 -117.184744 286 22ft 110kts
30-Dec-17 19:35 32.743431 -117.231982 286 1260ft 196kts
30-Dec-17 19:36 32.748026 -117.302193 231 2723ft 267kts
30-Dec-17 19:37 32.689386 -117.296643 142 6735ft 254kts
30-Dec-17 19:38 32.637107 -117.243983 112 9669ft 267kts
30-Dec-17 19:39 32.626002 -117.170531 97 11212ft 307kts
30-Dec-17 19:40 32.615570 -117.065711 96 12514ft 359kts
30-Dec-17 19:41 32.604748 -116.947820 96 14855ft 370kts
30-Dec-17 19:42 32.620257 -116.826048 77 16898ft 382kts
30-Dec-17 19:43 32.637301 -116.700268 83 18687ft 392kts
30-Dec-17 19:44 32.649909 -116.572128 84 20222ft 402kts
30-Dec-17 19:45 32.662783 -116.438894 84 21605ft 410kts
30-Dec-17 19:46 32.675349 -116.307732 84 22790ft 418kts
30-Dec-17 19:47 32.687589 -116.178522 84 23837ft 424kts
30-Dec-17 19:48 32.700692 -116.038504 84 24692ft 431kts
30-Dec-17 19:49 32.713872 -115.895984 84 25204ft 436kts
30-Dec-17 19:50 32.726979 -115.752445 84 25682ft 439kts
30-Dec-17 19:51 32.737834 -115.632168 84 26050ft 442kts
30-Dec-17 19:52 32.749982 -115.462365 89 26392ft 448kts
30-Dec-17 19:53 32.752958 -115.339353 89 26709ft 451kts
30-Dec-17 19:54 32.756367 -115.190955 89 27007ft 454kts
30-Dec-17 19:55 32.760155 -115.015922 89 27345ft 456kts
30-Dec-17 19:56 32.762718 -114.890309 89 27584ft 458kts
30-Dec-17 19:57 32.765624 -114.739704 89 27828ft 460kts
30-Dec-17 19:58 32.768321 -114.587686 89 28055ft 461kts
30-Dec-17 19:59 32.770469 -114.435471 89 28271ft 463kts
30-Dec-17 20:00 32.772316 -114.292106 90 28434ft 465kts
30-Dec-17 20:01 32.774097 -114.139785 90 28855ft 467kts
30-Dec-17 20:02 32.776085 -113.985086 85 29463ft 473kts
30-Dec-17 20:03 32.796345 -113.830292 80 30017ft 477kts
30-Dec-17 20:04 32.818465 -113.674567 80 30504ft 482kts
30-Dec-17 20:05 32.840666 -113.517431 80 30898ft 487kts
30-Dec-17 20:06 32.862933 -113.358345 80 31284ft 490kts
30-Dec-17 20:07 32.884623 -113.201930 81 31623ft 493kts
30-Dec-17 20:08 32.906735 -113.040893 81 31943ft 496kts
30-Dec-17 20:09 32.928841 -112.878298 80 32132ft 501kts
30-Dec-17 20:10 32.951746 -112.713638 74 32122ft 509kts
30-Dec-17 20:11 33.026800 -112.572365 50 32106ft 513kts
30-Dec-17 20:12 33.115960 -112.439929 49 32080ft 516kts
30-Dec-17 20:13 33.205779 -112.307482 49 32074ft 516kts
30-Dec-17 20:14 33.294503 -112.176160 49 32074ft 516kts
30-Dec-17 20:15 33.383091 -112.044574 49 32075ft 516kts
30-Dec-17 20:16 33.442243 -111.939627 63 32061ft 473kts
30-Dec-17 20:17 33.490530 -111.812347 65 32075ft 462kts
30-Dec-17 20:18 33.540509 -111.675344 65 32076ft 461kts
30-Dec-17 20:19 33.585912 -111.550035 65 32076ft 460kts
30-Dec-17 20:20 33.634985 -111.414024 65 32077ft 460kts
30-Dec-17 20:21 33.680221 -111.288157 65 32075ft 459kts
30-Dec-17 20:22 33.727467 -111.156160 65 32091ft 458kts
30-Dec-17 20:23 33.775772 -111.020635 65 32188ft 456kts
30-Dec-17 20:24 33.825025 -110.881880 65 32210ft 455kts
30-Dec-17 20:25 33.874446 -110.742017 65 32247ft 454kts
30-Dec-17 20:26 33.923589 -110.602327 65 32265ft 455kts
30-Dec-17 20:27 33.972716 -110.462071 65 32266ft 455kts
30-Dec-17 20:28 34.018745 -110.330089 66 32264ft 455kts
30-Dec-17 20:29 34.057694 -110.218010 66 32263ft 455kts
30-Dec-17 20:30 34.098884 -110.099018 66 32263ft 455kts
30-Dec-17 20:31 34.138824 -109.983210 66 32264ft 455kts
30-Dec-17 20:32 34.178420 -109.867983 66 32265ft 456kts
30-Dec-17 20:33 34.221363 -109.742536 66 32240ft 456kts
30-Dec-17 20:34 34.268871 -109.603134 65 32184ft 458kts
30-Dec-17 20:35 34.315542 -109.465612 65 32186ft 459kts
30-Dec-17 20:36 34.361690 -109.329050 66 32183ft 461kts
30-Dec-17 20:37 34.408268 -109.190488 66 32183ft 461kts
30-Dec-17 20:38 34.436978 -109.039024 79 32184ft 464kts
30-Dec-17 20:39 34.456743 -108.884728 80 32184ft 465kts
30-Dec-17 20:40 34.476085 -108.729704 80 32144ft 463kts
30-Dec-17 20:41 34.495064 -108.575876 80 30905ft 461kts
30-Dec-17 20:42 34.531762 -108.429711 66 30083ft 451kts
30-Dec-17 20:43 34.576570 -108.299100 66 28693ft 444kts
30-Dec-17 20:44 34.623078 -108.164435 66 27413ft 434kts
30-Dec-17 20:45 34.669027 -108.030894 66 26134ft 426kts
30-Dec-17 20:46 34.714140 -107.899232 66 24916ft 418kts
30-Dec-17 20:47 34.758258 -107.769929 66 23807ft 411kts
30-Dec-17 20:48 34.801328 -107.643158 66 22079ft 401kts
30-Dec-17 20:49 34.841838 -107.523451 66 18518ft 380kts
30-Dec-17 20:50 34.880718 -107.408142 66 15221ft 360kts
30-Dec-17 20:51 34.916693 -107.301320 67 13720ft 341kts
30-Dec-17 20:52 34.951644 -107.196754 68 11913ft 330kts
30-Dec-17 20:53 34.985614 -107.094886 68 10355ft 311kts
30-Dec-17 20:54 35.013210 -107.011945 68 9982ft 230kts
30-Dec-17 20:55 35.037213 -106.939579 68 8760ft 227kts
30-Dec-17 20:56 35.044800 -106.865134 89 7855ft 224kts
30-Dec-17 20:57 35.045040 -106.789939 90 7150ft 219kts
30-Dec-17 20:58 35.044619 -106.730947 91 6750ft 148kts
30-Dec-17 20:59 35.044872 -106.683355 92 5761ft 135kts
30-Dec-17 21:00 35.044391 -106.637568 90 5506ft 140kts
30-Dec-17 21:01 35.044173 -106.594991 91 5318ft 90kts
30-Dec-17 21:02 35.045812 -106.592247 270 5318ft 26kts
30-Dec-17 21:03 35.045821 -106.598915 265 5318ft 14kts
30-Dec-17 21:04 35.045742 -106.603485 270 5318ft 13kts
30-Dec-17 21:05 35.045822 -106.608490 270 5318ft 14kts
30-Dec-17 21:06 35.045766 -106.613288 251 5318ft 13kts
30-Dec-17 21:07 35.045554 -106.616746 270 5318ft 6kts
30-Dec-17 21:08 35.045719 -106.618726 325 5318ft 5kts
30-Dec-17 21:09 35.046937 -106.619406 64 5318ft 3kts
30-Dec-17 21:10 35.047115 -106.618741 72 5318ft 0kts
30-Dec-17 21:11 35.047115 -106.618741 72 5318ft 0kts

Navigation Log

Ident Type
Flight plan parsing failed, navigation log unavailable